createdAt,value
2022-12-09T00:08:55.468Z,-3.12
2022-12-09T00:19:01.171Z,-3.10
2022-12-09T00:29:06.846Z,-3.08
2022-12-09T00:39:13.841Z,-3.06
2022-12-09T00:49:39.910Z,-3.03
2022-12-09T00:59:45.532Z,-3.15
2022-12-09T01:10:12.694Z,-3.35
2022-12-09T01:20:16.789Z,-3.50
2022-12-09T01:30:43.585Z,-3.58
2022-12-09T01:40:49.444Z,-3.70
2022-12-09T01:50:58.910Z,-3.86
2022-12-09T02:01:04.916Z,-3.93
2022-12-09T02:11:12.604Z,-3.91
2022-12-09T02:21:24.412Z,-3.90
2022-12-09T02:31:47.061Z,-3.68
2022-12-09T02:42:10.162Z,-3.41
2022-12-09T02:52:17.718Z,-3.27
2022-12-09T03:02:49.174Z,-3.06
2022-12-09T03:13:02.050Z,-2.83
2022-12-09T03:23:10.494Z,-2.65
2022-12-09T03:33:19.711Z,-2.54
2022-12-09T03:43:28.704Z,-2.40
2022-12-09T03:53:40.243Z,-2.29
2022-12-09T04:04:07.796Z,-2.19
2022-12-09T04:14:15.727Z,-2.14
2022-12-09T04:24:22.109Z,-2.12
2022-12-09T04:34:27.859Z,-2.12
2022-12-09T04:44:33.513Z,-2.05
2022-12-09T04:54:39.266Z,-1.98
2022-12-09T05:04:47.032Z,-1.93
2022-12-09T05:14:52.956Z,-1.89
2022-12-09T05:24:58.872Z,-1.83
2022-12-09T05:35:05.131Z,-1.76
2022-12-09T05:45:12.535Z,-1.71
2022-12-09T05:55:18.421Z,-1.66
2022-12-09T06:05:33.904Z,-1.62
2022-12-09T06:15:40.346Z,-1.58
2022-12-09T06:26:05.703Z,-1.53
2022-12-09T06:36:12.673Z,-1.46
2022-12-09T06:46:27.159Z,-1.39
2022-12-09T06:56:32.657Z,-1.36
2022-12-09T07:06:40.239Z,-1.35
2022-12-09T07:16:56.645Z,-1.28
2022-12-09T07:27:07.785Z,-1.15
2022-12-09T07:37:15.687Z,-0.96
2022-12-09T07:47:21.380Z,-0.75
2022-12-09T07:57:27.302Z,-0.63
2022-12-09T08:07:34.799Z,-0.52
2022-12-09T08:17:42.919Z,-0.26
2022-12-09T08:27:48.670Z,0.29
2022-12-09T08:37:54.661Z,0.95
2022-12-09T08:48:00.440Z,3.14
2022-12-09T08:58:06.404Z,6.93
2022-12-09T09:08:11.921Z,8.34
2022-12-09T09:18:17.707Z,6.65
2022-12-09T09:28:28.920Z,5.26
2022-12-09T09:38:36.739Z,4.42
2022-12-09T09:48:43.130Z,3.84
2022-12-09T09:58:58.109Z,3.50
2022-12-09T10:09:13.354Z,3.29
2022-12-09T10:19:25.990Z,3.27
2022-12-09T10:29:49.352Z,3.31
2022-12-09T10:39:59.480Z,3.57
2022-12-09T10:50:07.193Z,3.83
2022-12-09T11:00:32.721Z,3.88
2022-12-09T11:10:49.357Z,3.92
2022-12-09T11:21:01.172Z,3.90
2022-12-09T11:31:33.469Z,3.31
2022-12-09T11:41:58.097Z,2.64
2022-12-09T11:52:08.085Z,2.26
2022-12-09T12:02:27.151Z,2.11
2022-12-09T12:12:41.857Z,1.98
2022-12-09T12:23:10.503Z,1.84
2022-12-09T12:44:32.390Z,1.83
2022-12-09T12:54:49.796Z,2.06
2022-12-09T13:05:00.282Z,1.99
2022-12-09T13:15:11.410Z,1.76
2022-12-09T13:25:23.663Z,1.58
2022-12-09T13:35:35.778Z,1.35
2022-12-09T13:45:52.791Z,1.13
2022-12-09T13:55:57.914Z,0.95
2022-12-09T14:06:06.235Z,0.78
2022-12-09T14:16:36.007Z,0.60
2022-12-09T14:26:45.330Z,0.48
2022-12-09T14:36:57.627Z,0.38
2022-12-09T14:47:17.561Z,0.28
2022-12-09T14:57:26.286Z,0.17
2022-12-09T15:07:33.461Z,0.06
2022-12-09T15:17:43.339Z,-0.04
2022-12-09T15:28:02.774Z,-0.14
2022-12-09T15:38:10.921Z,-0.24
2022-12-09T15:48:20.599Z,-0.32
2022-12-09T15:58:30.204Z,-0.39
2022-12-09T16:08:38.407Z,-0.48
2022-12-09T16:18:51.311Z,-0.59
2022-12-09T16:29:00.614Z,-0.73
2022-12-09T16:39:42.958Z,-0.80
2022-12-09T16:49:49.619Z,-0.88
2022-12-09T16:59:53.900Z,-0.93
2022-12-09T17:09:59.502Z,-1.00
2022-12-09T17:20:05.474Z,-1.02
2022-12-09T17:30:12.935Z,-1.03
2022-12-09T17:40:18.441Z,-1.04
2022-12-09T17:50:23.913Z,-1.07
2022-12-09T18:00:29.423Z,-1.12
2022-12-09T18:10:35.302Z,-1.16
2022-12-09T18:20:41.377Z,-1.22
2022-12-09T18:30:47.100Z,-1.23
2022-12-09T18:41:04.534Z,-1.19
2022-12-09T18:51:17.087Z,-1.20
2022-12-09T19:01:25.141Z,-1.28
2022-12-09T19:11:33.597Z,-1.35
2022-12-09T19:21:39.873Z,-1.44
2022-12-09T19:31:47.055Z,-1.47
2022-12-09T19:41:54.525Z,-1.47
2022-12-09T19:52:00.293Z,-1.44
2022-12-09T20:02:08.030Z,-1.40
2022-12-09T20:12:13.635Z,-1.35
2022-12-09T20:22:19.262Z,-1.33
2022-12-09T20:32:26.136Z,-1.29
2022-12-09T20:42:31.718Z,-1.27
2022-12-09T20:52:37.199Z,-1.27
2022-12-09T21:02:42.717Z,-1.30
2022-12-09T21:12:48.259Z,-1.29
2022-12-09T21:23:24.800Z,-1.25
2022-12-09T21:33:19.644Z,-1.21
2022-12-09T21:43:27.509Z,-1.18
2022-12-09T21:53:33.952Z,-1.13
2022-12-09T22:03:43.027Z,-1.13
2022-12-09T22:13:48.829Z,-1.07
2022-12-09T22:23:55.923Z,-1.04
2022-12-09T22:34:05.519Z,-1.11
2022-12-09T22:44:12.606Z,-1.12
2022-12-09T22:54:18.174Z,-1.12
2022-12-09T23:04:44.281Z,-1.11
2022-12-09T23:14:49.792Z,-1.09
2022-12-09T23:24:55.445Z,-1.08
2022-12-09T23:35:05.870Z,-1.06
2022-12-09T23:45:13.710Z,-1.05
2022-12-09T23:55:19.502Z,-1.05
